Terminal Aerodrome Forecast
Issued by NWS Cleveland, OH

Home | Current Version | Previous Version | Graphics & Text | Print | Product List | Glossary On
Versions: 1 2 3 4 5 6 7 8 9 10 11 12 13 14 15 16 17
000
FTUS41 KCLE 190538
TAFYNG
TAF
KYNG 190538Z 1906/2006 22004KT P6SM SCT060
     FM191600 24008KT P6SM -SHRA VCTS BKN035CB
     FM192000 27008KT P6SM -SHRA VCTS BKN040CB
      TEMPO 1920/1922 5SM -TSRA BKN040CB
     FM200000 30006KT P6SM SCT060
     FM200500 00000KT 4SM BR FEW200=

USA.gov is the U.S. government's official web portal to all federal, state and local government web resources and services.